Showing 72
Show Past 72 Hours | Show Past 24 Hours xlsx
Date RH Dew Seasonal Current Max Air Min Air Wind Wind Wind Gust Rain
Time % Point Rain Air Temp Since Since Speed Dir Gust Dir Total
Deg F Inches Deg F Midnight Midnight MPH MPH Inches
------------------------------------------------------------------------------------------------------------------------
05/08/2026 16:15 70 57.8 24.67 67.7 70.8 52.6 7 269 9 274 0.00
05/08/2026 16:00 69 58.4 24.67 68.9 70.8 52.6 7 282 9 274 0.00
05/08/2026 15:45 69 59.2 24.67 69.9 70.8 52.6 6 282 9 274 0.00
05/08/2026 15:30 70 58.6 24.67 68.9 70.8 52.6 9 308 9 274 0.00
05/08/2026 15:15 69 58.8 24.67 69.2 70.8 52.6 7 233 9 274 0.00
05/08/2026 15:00 71 59.0 24.67 68.9 70.8 52.6 7 228 9 274 0.00
05/08/2026 14:45 71 58.8 24.67 68.4 70.8 52.6 8 250 9 274 0.00
05/08/2026 14:30 71 58.8 24.67 68.5 70.8 52.6 8 237 9 274 0.00
05/08/2026 14:15 70 59.0 24.67 69.3 70.8 52.6 8 270 9 274 0.00
05/08/2026 14:00 68 59.5 24.67 70.6 70.8 52.6 9 261 9 274 0.00
05/08/2026 13:45 68 59.7 24.67 70.6 70.8 52.6 9 274 9 274 0.00
05/08/2026 13:30 70 59.8 24.67 70.2 70.8 52.6 9 356 9 356 0.00
05/08/2026 13:15 70 60.2 24.67 70.7 70.8 52.6 5 290 6 231 0.00
05/08/2026 13:00 69 60.3 24.67 70.8 70.8 52.6 4 264 6 231 0.00
05/08/2026 12:45 71 60.4 24.67 70.2 70.4 52.6 6 292 6 231 0.00
05/08/2026 12:30 71 60.4 24.67 70.4 70.4 52.6 5 285 6 231 0.00
05/08/2026 12:15 71 60.5 24.67 70.4 70.4 52.6 6 231 6 231 0.00
05/08/2026 12:00 74 60.2 24.67 69.0 69.0 52.6 0 263 5 249 0.00
05/08/2026 11:45 75 60.0 24.67 68.3 68.5 52.6 1 178 5 249 0.00
05/08/2026 11:30 75 60.3 24.67 68.5 68.5 52.6 3 244 5 249 0.00
05/08/2026 11:15 76 59.7 24.67 67.5 67.5 52.6 5 249 5 249 0.00
05/08/2026 11:00 77 59.4 24.67 66.7 66.7 52.6 2 311 2 311 0.00
05/08/2026 10:45 78 59.0 24.67 65.9 65.9 52.6 2 187 2 187 0.00
05/08/2026 10:30 82 58.9 24.67 64.6 64.6 52.6 0 188 0 316 0.00
05/08/2026 10:15 89 59.4 24.67 62.7 62.7 52.6 0 346 0 316 0.00
05/08/2026 10:00 98 60.3 24.67 60.7 60.7 52.6 0 293 0 316 0.00
05/08/2026 09:45 100 58.4 24.67 58.4 58.4 52.6 0 238 0 316 0.00
05/08/2026 09:30 100 56.1 24.67 56.1 56.1 52.6 0 339 0 316 0.00
05/08/2026 09:15 100 54.6 24.67 54.6 54.6 52.6 0 257 0 316 0.00
05/08/2026 09:00 100 54.1 24.67 54.1 54.5 52.6 0 219 0 316 0.00
05/08/2026 08:45 100 53.7 24.67 53.7 54.5 52.6 0 184 0 316 0.00
05/08/2026 08:30 100 53.1 24.67 53.1 54.5 52.6 0 308 0 316 0.00
05/08/2026 08:15 100 52.8 24.67 52.8 54.5 52.6 0 229 0 316 0.00
05/08/2026 08:00 100 52.7 24.67 52.7 54.5 52.6 0 263 0 316 0.00
05/08/2026 07:45 100 52.6 24.67 52.6 54.5 52.6 0 190 0 316 0.00
05/08/2026 07:30 100 52.9 24.67 52.9 54.5 52.9 0 259 0 316 0.00
05/08/2026 07:15 100 52.9 24.67 52.9 54.5 52.9 0 302 0 316 0.00
05/08/2026 07:00 100 53.0 24.67 53.0 54.5 53.0 0 354 0 316 0.00
05/08/2026 06:45 100 53.1 24.67 53.1 54.5 53.0 0 237 0 316 0.00
05/08/2026 06:30 100 53.1 24.67 53.1 54.5 53.0 0 317 0 316 0.00
05/08/2026 06:15 100 53.1 24.67 53.1 54.5 53.0 0 290 0 316 0.00
05/08/2026 06:00 100 53.1 24.67 53.1 54.5 53.0 0 292 0 316 0.00
05/08/2026 05:45 100 53.1 24.67 53.1 54.5 53.0 0 287 0 316 0.00
05/08/2026 05:30 100 53.1 24.67 53.1 54.5 53.0 0 284 0 316 0.00
05/08/2026 05:15 100 53.1 24.67 53.1 54.5 53.0 0 301 0 316 0.00
05/08/2026 05:00 100 53.1 24.67 53.1 54.5 53.0 0 23 0 316 0.00
05/08/2026 04:45 100 53.0 24.67 53.0 54.5 53.0 0 317 0 316 0.00
05/08/2026 04:30 100 53.0 24.67 53.0 54.5 53.0 0 287 0 316 0.00
05/08/2026 04:15 100 53.1 24.67 53.1 54.5 53.1 0 288 0 316 0.00
05/08/2026 04:00 100 53.1 24.67 53.1 54.5 53.1 0 221 0 316 0.00
05/08/2026 03:45 100 53.2 24.67 53.2 54.5 53.2 0 313 0 316 0.00
05/08/2026 03:30 100 53.4 24.67 53.4 54.5 53.3 0 294 0 316 0.00
05/08/2026 03:15 100 53.5 24.67 53.5 54.5 53.3 0 287 0 316 0.00
05/08/2026 03:00 100 53.3 24.67 53.3 54.5 53.3 0 324 0 316 0.00
05/08/2026 02:45 100 53.5 24.67 53.5 54.5 53.5 0 316 0 316 0.00
05/08/2026 02:30 100 53.7 24.67 53.7 54.5 53.7 0 222 0 222 0.00
05/08/2026 02:15 100 53.7 24.67 53.7 54.5 53.7 0 353 0 353 0.00
05/08/2026 02:00 100 53.8 24.67 53.8 54.5 53.8 0 29 0 29 0.00
05/08/2026 01:45 100 53.9 24.67 53.9 54.5 53.9 0 328 0 328 0.00
05/08/2026 01:30 100 54.0 24.67 54.0 54.5 54.0 0 291 0 291 0.00
05/08/2026 01:15 100 54.1 24.67 54.1 54.5 54.1 0 280 0 280 0.00
05/08/2026 01:00 100 54.2 24.67 54.2 54.5 54.2 0 358 0 358 0.00
05/08/2026 00:45 100 54.3 24.67 54.3 54.5 54.3 0 83 0 83 0.00
05/08/2026 00:30 100 54.4 24.67 54.4 54.5 54.4 0 125 0 125 0.00
05/08/2026 00:15 100 54.5 24.67 54.5 54.5 54.5 0 279 0 279 0.00
05/08/2026 00:00 100 54.5 24.67 54.5 54.5 54.5 0 291 0 291 0.00
05/07/2026 23:45 100 54.5 24.67 54.5 70.1 53.1 0 295 11 238 0.00
05/07/2026 23:30 100 54.6 24.67 54.6 70.1 53.1 0 238 11 238 0.00
05/07/2026 23:15 100 54.7 24.67 54.7 70.1 53.1 0 301 11 238 0.00
05/07/2026 23:00 100 54.7 24.67 54.7 70.1 53.1 0 277 11 238 0.00
05/07/2026 22:45 100 54.9 24.67 54.9 70.1 53.1 0 251 11 238 0.00
05/07/2026 22:30 100 55.1 24.67 55.1 70.1 53.1 0 29 11 238 0.00
05/07/2026 22:15 100 55.2 24.67 55.2 70.1 53.1 0 346 11 238 0.00
05/07/2026 22:00 100 55.3 24.67 55.3 70.1 53.1 0 246 11 238 0.00
05/07/2026 21:45 100 55.4 24.67 55.4 70.1 53.1 0 306 11 238 0.00
05/07/2026 21:30 100 55.5 24.67 55.5 70.1 53.1 0 241 11 238 0.00
05/07/2026 21:15 100 55.5 24.67 55.5 70.1 53.1 0 277 11 238 0.00
05/07/2026 21:00 100 55.6 24.67 55.6 70.1 53.1 0 285 11 238 0.00
05/07/2026 20:45 100 55.8 24.67 55.8 70.1 53.1 0 231 11 238 0.00
05/07/2026 20:30 100 55.9 24.67 55.9 70.1 53.1 0 294 11 238 0.00
05/07/2026 20:15 100 56.0 24.67 56.0 70.1 53.1 3 190 11 238 0.00
05/07/2026 20:00 100 56.2 24.67 56.2 70.1 53.1 2 289 11 238 0.00
05/07/2026 19:45 100 56.5 24.67 56.6 70.1 53.1 0 307 11 238 0.00
05/07/2026 19:30 98 56.5 24.67 57.1 70.1 53.1 4 303 11 238 0.00
05/07/2026 19:15 95 56.6 24.67 58.1 70.1 53.1 4 291 11 238 0.00
05/07/2026 19:00 92 57.0 24.67 59.3 70.1 53.1 6 306 11 238 0.00
05/07/2026 18:45 91 57.1 24.67 59.9 70.1 53.1 6 256 11 238 0.00
05/07/2026 18:30 89 57.1 24.67 60.3 70.1 53.1 9 248 11 238 0.00
05/07/2026 18:15 86 57.2 24.67 61.3 70.1 53.1 8 224 11 238 0.00
05/07/2026 18:00 84 57.6 24.67 62.5 70.1 53.1 9 285 11 238 0.00
05/07/2026 17:45 84 57.7 24.67 62.8 70.1 53.1 8 235 11 238 0.00
05/07/2026 17:30 82 58.1 24.67 63.5 70.1 53.1 7 275 11 238 0.00
05/07/2026 17:15 83 58.7 24.67 63.9 70.1 53.1 6 205 11 238 0.00
05/07/2026 17:00 85 59.0 24.67 63.5 70.1 53.1 7 245 11 238 0.00
05/07/2026 16:45 87 58.8 24.67 62.8 70.1 53.1 9 246 11 238 0.00
05/07/2026 16:30 86 59.3 24.67 63.4 70.1 53.1 9 293 11 238 0.00
05/07/2026 16:15 84 59.6 24.67 64.4 70.1 53.1 9 293 11 238 0.00
05/07/2026 16:00 84 59.7 24.67 64.7 70.1 53.1 9 264 11 238 0.00
05/07/2026 15:45 84 59.8 24.67 64.9 70.1 53.1 9 259 11 238 0.00
05/07/2026 15:30 82 60.2 24.67 65.6 70.1 53.1 10 306 11 238 0.00
05/07/2026 15:15 81 60.0 24.67 66.1 70.1 53.1 11 291 11 238 0.00
05/07/2026 15:00 79 60.3 24.67 67.1 70.1 53.1 10 261 11 238 0.00
05/07/2026 14:45 80 60.8 24.67 67.2 70.1 53.1 8 288 11 238 0.00
05/07/2026 14:30 81 60.2 24.67 66.1 70.1 53.1 11 238 11 238 0.00
05/07/2026 14:15 81 60.4 24.67 66.6 70.1 53.1 8 244 10 248 0.00
05/07/2026 14:00 81 60.7 24.67 66.7 70.1 53.1 9 310 10 248 0.00
05/07/2026 13:45 82 60.5 24.67 66.2 70.1 53.1 9 265 10 248 0.00
05/07/2026 13:30 80 60.5 24.67 66.8 70.1 53.1 8 284 10 248 0.00
05/07/2026 13:15 80 60.3 24.67 66.6 70.1 53.1 10 248 10 248 0.00
05/07/2026 13:00 79 60.6 24.67 67.2 70.1 53.1 9 296 9 296 0.00
05/07/2026 12:45 80 60.8 24.67 67.3 70.1 53.1 8 206 9 192 0.00
05/07/2026 12:30 80 60.9 24.67 67.4 70.1 53.1 8 264 9 192 0.00
05/07/2026 12:15 80 61.2 24.67 67.7 70.1 53.1 8 217 9 192 0.00
05/07/2026 12:00 79 61.6 24.67 68.5 70.1 53.1 7 263 9 192 0.00
05/07/2026 11:45 77 61.4 24.67 68.9 70.1 53.1 8 228 9 192 0.00
05/07/2026 11:30 76 62.0 24.67 70.1 70.1 53.1 8 249 9 192 0.00
05/07/2026 11:15 76 62.2 24.67 70.1 70.1 53.1 8 116 9 192 0.00
05/07/2026 11:00 77 62.5 24.67 69.8 69.8 53.1 6 243 9 192 0.00
05/07/2026 10:45 81 61.9 24.67 68.0 68.0 53.1 6 245 9 192 0.00
05/07/2026 10:30 83 61.7 24.67 66.9 66.9 53.1 7 237 9 192 0.00
05/07/2026 10:15 89 62.0 24.67 65.3 65.3 53.1 7 277 9 192 0.00
05/07/2026 10:00 96 61.4 24.67 62.7 62.7 53.1 7 244 9 192 0.00
05/07/2026 09:45 100 60.7 24.67 60.8 60.8 53.1 9 192 9 192 0.00
05/07/2026 09:30 100 59.8 24.67 59.8 59.8 53.1 6 266 7 205 0.00
05/07/2026 09:15 100 57.9 24.67 57.9 57.9 53.1 7 233 7 205 0.00
05/07/2026 09:00 100 57.0 24.67 57.0 57.0 53.1 7 205 7 205 0.00
05/07/2026 08:45 100 56.5 24.67 56.5 56.5 53.1 6 227 6 227 0.00
05/07/2026 08:30 100 55.9 24.67 55.9 55.9 53.1 4 233 6 317 0.00
05/07/2026 08:15 100 54.9 24.67 54.9 55.8 53.1 6 317 6 317 0.00
05/07/2026 08:00 100 54.6 24.67 54.6 55.8 53.1 2 235 4 249 0.00
05/07/2026 07:45 100 53.9 24.67 53.9 55.8 53.1 4 249 4 249 0.00
05/07/2026 07:30 100 53.9 24.67 53.9 55.8 53.1 0 199 1 281 0.00
05/07/2026 07:15 100 53.6 24.67 53.6 55.8 53.1 0 137 1 281 0.00
05/07/2026 07:00 100 53.2 24.67 53.2 55.8 53.1 0 287 1 281 0.00
05/07/2026 06:45 100 53.1 24.67 53.1 55.8 53.1 0 233 1 281 0.00
05/07/2026 06:30 100 53.2 24.67 53.2 55.8 53.1 0 220 1 281 0.00
05/07/2026 06:15 100 53.5 24.67 53.5 55.8 53.1 1 281 1 281 0.00
05/07/2026 06:00 100 53.5 24.67 53.5 55.8 53.1 1 159 1 159 0.00
05/07/2026 05:45 100 53.5 24.67 53.5 55.8 53.1 1 266 1 266 0.00
05/07/2026 05:30 100 53.6 24.67 53.6 55.8 53.1 0 97 0 314 0.00
05/07/2026 05:15 100 53.8 24.67 53.8 55.8 53.1 0 227 0 314 0.00
05/07/2026 05:00 100 53.9 24.67 53.9 55.8 53.1 0 113 0 314 0.00
05/07/2026 04:45 100 54.0 24.67 54.0 55.8 53.1 0 144 0 314 0.00
05/07/2026 04:30 100 55.5 24.67 55.5 55.8 53.1 0 236 0 314 0.00
05/07/2026 04:15 100 55.0 24.67 55.0 55.8 53.1 0 24 0 314 0.00
05/07/2026 04:00 100 53.1 24.67 53.1 55.8 53.1 0 191 0 314 0.00
05/07/2026 03:45 100 53.5 24.67 53.5 55.8 53.5 0 126 0 314 0.00
05/07/2026 03:30 100 53.8 24.67 53.8 55.8 53.8 0 316 0 314 0.00
05/07/2026 03:15 100 53.8 24.67 53.8 55.8 53.8 0 196 0 314 0.00
05/07/2026 03:00 100 54.0 24.67 54.0 55.8 54.0 0 131 0 314 0.00
05/07/2026 02:45 100 54.3 24.67 54.3 55.8 54.3 0 202 0 314 0.00
05/07/2026 02:30 100 54.5 24.67 54.5 55.8 54.5 0 277 0 314 0.00
05/07/2026 02:15 100 54.7 24.67 54.7 55.8 54.7 0 360 0 314 0.00
05/07/2026 02:00 100 54.9 24.67 54.9 55.8 54.9 0 196 0 314 0.00
05/07/2026 01:45 100 55.1 24.67 55.1 55.8 55.1 0 205 0 314 0.00
05/07/2026 01:30 100 55.2 24.67 55.2 55.8 55.2 0 233 0 314 0.00
05/07/2026 01:15 100 55.3 24.67 55.3 55.8 55.3 0 265 0 314 0.00
05/07/2026 01:00 100 55.3 24.67 55.3 55.8 55.3 0 274 0 314 0.00
05/07/2026 00:45 100 55.5 24.67 55.5 55.8 55.5 0 331 0 314 0.00
05/07/2026 00:30 100 55.6 24.67 55.6 55.8 55.6 0 314 0 314 0.00
05/07/2026 00:15 100 55.8 24.67 55.8 55.8 55.8 0 311 0 311 0.00
05/07/2026 00:00 100 55.8 24.67 55.8 55.8 55.8 0 312 0 312 0.00